createdAt,value
2019-03-04T00:01:00.082Z,2.37
2019-03-04T00:03:27.979Z,2.43
2019-03-04T00:05:55.974Z,2.57
2019-03-04T00:08:23.975Z,2.60
2019-03-04T00:10:51.857Z,2.20
2019-03-04T00:13:19.749Z,2.43
2019-03-04T00:15:47.719Z,2.60
2019-03-04T00:18:15.695Z,2.10
2019-03-04T00:20:43.596Z,2.07
2019-03-04T00:23:11.515Z,2.40
2019-03-04T00:25:40.029Z,2.37
2019-03-04T00:28:08.497Z,2.57
2019-03-04T00:30:36.391Z,2.50
2019-03-04T00:33:04.264Z,2.43
2019-03-04T00:35:32.222Z,2.43
2019-03-04T00:38:00.115Z,2.10
2019-03-04T00:40:28.059Z,2.20
2019-03-04T00:42:55.961Z,2.27
2019-03-04T00:45:23.865Z,2.10
2019-03-04T00:47:52.213Z,2.10
2019-03-04T00:50:20.316Z,2.13
2019-03-04T00:52:48.273Z,2.50
2019-03-04T00:55:17.143Z,2.17
2019-03-04T00:57:45.064Z,2.07
2019-03-04T01:00:16.438Z,2.63
2019-03-04T01:02:44.563Z,2.50
2019-03-04T01:05:12.480Z,2.00
2019-03-04T01:07:40.468Z,1.80
2019-03-04T01:10:08.598Z,2.13
2019-03-04T01:12:36.508Z,1.97
2019-03-04T01:15:04.650Z,2.30
2019-03-04T01:17:32.532Z,2.30
2019-03-04T01:20:00.440Z,2.63
2019-03-04T01:22:28.405Z,2.07
2019-03-04T01:24:56.280Z,2.13
2019-03-04T01:27:24.175Z,1.80
2019-03-04T01:29:52.132Z,1.70
2019-03-04T01:32:20.003Z,1.80
2019-03-04T01:34:47.967Z,2.10
2019-03-04T01:37:15.900Z,1.73
2019-03-04T01:39:43.799Z,2.40
2019-03-04T01:42:13.575Z,2.60
2019-03-04T01:44:41.742Z,2.47
2019-03-04T01:47:09.625Z,2.17
2019-03-04T01:49:37.525Z,2.20
2019-03-04T01:52:05.476Z,2.50
2019-03-04T01:54:33.359Z,2.30
2019-03-04T01:57:01.255Z,2.43
2019-03-04T01:59:29.322Z,2.67
2019-03-04T02:01:57.200Z,2.37
2019-03-04T02:04:25.118Z,2.40
2019-03-04T02:06:53.185Z,2.67
2019-03-04T02:09:21.226Z,2.10
2019-03-04T02:11:49.137Z,2.30
2019-03-04T02:14:17.014Z,1.80
2019-03-04T02:16:44.959Z,2.17
2019-03-04T02:19:12.858Z,2.40
2019-03-04T02:21:40.728Z,1.97
2019-03-04T02:24:18.577Z,2.40
2019-03-04T02:26:46.455Z,2.13
2019-03-04T02:29:14.353Z,2.50
2019-03-04T02:31:42.296Z,2.10
2019-03-04T02:34:10.175Z,1.97
2019-03-04T02:36:38.157Z,2.03
2019-03-04T02:39:06.276Z,2.13
2019-03-04T02:41:34.292Z,2.20
2019-03-04T02:44:02.159Z,2.10
2019-03-04T02:46:30.090Z,1.87
2019-03-04T02:48:58.084Z,1.53
2019-03-04T02:51:25.984Z,1.70
2019-03-04T02:53:53.896Z,1.60
2019-03-04T02:56:21.769Z,2.00
2019-03-04T02:58:49.765Z,1.67
2019-03-04T03:01:18.749Z,1.50
2019-03-04T03:03:46.692Z,1.63
2019-03-04T03:06:14.617Z,1.80
2019-03-04T03:08:42.602Z,1.30
2019-03-04T03:11:10.523Z,1.50
2019-03-04T03:13:38.448Z,1.40
2019-03-04T03:16:06.438Z,1.20
2019-03-04T03:18:34.301Z,1.70
2019-03-04T03:21:02.225Z,1.27
2019-03-04T03:23:30.146Z,1.43
2019-03-04T03:25:58.079Z,1.30
2019-03-04T03:28:26.065Z,1.40
2019-03-04T03:30:54.043Z,1.20
2019-03-04T03:33:22.017Z,1.33
2019-03-04T03:35:49.951Z,1.60
2019-03-04T03:38:17.872Z,1.47
2019-03-04T03:40:45.772Z,1.57
2019-03-04T03:43:13.651Z,1.40
2019-03-04T03:45:41.560Z,1.10
2019-03-04T03:48:09.467Z,1.30
2019-03-04T03:50:37.403Z,1.30
2019-03-04T03:53:05.319Z,1.40
2019-03-04T03:55:33.350Z,1.30
2019-03-04T03:58:01.257Z,1.53
2019-03-04T04:00:29.416Z,1.60
2019-03-04T04:02:57.296Z,1.40
2019-03-04T04:05:25.189Z,1.20
2019-03-04T04:07:53.177Z,1.20
2019-03-04T04:10:21.360Z,1.30
2019-03-04T04:12:49.454Z,1.40
2019-03-04T04:15:17.541Z,1.23
2019-03-04T04:17:45.415Z,1.00
2019-03-04T04:20:13.824Z,1.20
2019-03-04T04:22:41.820Z,1.43
2019-03-04T04:25:09.746Z,1.13
2019-03-04T04:27:37.629Z,1.10
2019-03-04T04:30:05.919Z,1.30
2019-03-04T04:32:33.791Z,1.43
2019-03-04T04:35:01.678Z,1.47
2019-03-04T04:37:29.609Z,0.97
2019-03-04T04:39:57.491Z,2.13
2019-03-04T04:42:25.840Z,2.00
2019-03-04T04:44:53.765Z,2.50
2019-03-04T04:47:21.659Z,2.37
2019-03-04T04:49:49.548Z,1.90
2019-03-04T04:52:17.595Z,2.40
2019-03-04T04:54:45.512Z,2.67
2019-03-04T04:57:13.407Z,1.57
2019-03-04T04:59:41.441Z,1.73
2019-03-04T05:02:09.336Z,2.13
2019-03-04T05:04:37.218Z,2.20
2019-03-04T05:07:05.267Z,2.10
2019-03-04T05:09:33.169Z,1.70
2019-03-04T05:12:01.100Z,2.00
2019-03-04T05:14:29.341Z,2.40
2019-03-04T05:16:57.217Z,2.57
2019-03-04T05:19:25.099Z,2.50
2019-03-04T05:21:53.015Z,3.03
2019-03-04T05:24:20.916Z,2.87
2019-03-04T05:26:48.792Z,2.37
2019-03-04T05:29:16.715Z,2.30
2019-03-04T05:31:44.716Z,2.63
2019-03-04T05:34:12.600Z,2.20
2019-03-04T05:36:40.499Z,2.30
2019-03-04T05:39:08.409Z,1.77
2019-03-04T05:41:36.304Z,1.83
2019-03-04T05:44:04.307Z,1.60
2019-03-04T05:46:32.203Z,1.40
2019-03-04T05:49:00.118Z,1.70
2019-03-04T05:51:28.036Z,2.03
2019-03-04T05:53:55.999Z,2.47
2019-03-04T05:56:23.905Z,2.50
2019-03-04T05:58:51.927Z,2.30
2019-03-04T06:01:21.713Z,2.43
2019-03-04T06:03:50.135Z,2.37
2019-03-04T06:06:37.073Z,2.90
2019-03-04T06:09:06.369Z,3.10
2019-03-04T06:11:34.264Z,3.23
2019-03-04T06:14:02.175Z,3.07
2019-03-04T06:16:30.168Z,3.10
2019-03-04T06:18:58.821Z,4.40
2019-03-04T06:21:26.723Z,3.47
2019-03-04T06:23:54.600Z,3.93
2019-03-04T06:26:23.252Z,4.27
2019-03-04T06:28:51.158Z,4.30
2019-03-04T06:31:19.150Z,4.60
2019-03-04T06:33:47.063Z,2.30
2019-03-04T06:36:14.994Z,2.60
2019-03-04T06:38:42.859Z,3.00
2019-03-04T06:41:10.736Z,3.43
2019-03-04T06:43:38.678Z,3.87
2019-03-04T06:46:06.633Z,3.80
2019-03-04T06:48:34.522Z,3.07
2019-03-04T06:51:03.339Z,3.20
2019-03-04T06:53:39.176Z,3.70
2019-03-04T06:56:24.163Z,3.70
2019-03-04T06:58:53.469Z,3.30
2019-03-04T07:01:27.435Z,3.53
2019-03-04T07:04:07.234Z,3.83
2019-03-04T07:06:35.154Z,3.23
2019-03-04T07:09:13.737Z,2.80
2019-03-04T07:11:48.146Z,4.17
2019-03-04T07:14:16.025Z,2.90
2019-03-04T07:16:44.240Z,2.13
2019-03-04T07:19:24.852Z,1.63
2019-03-04T07:21:52.781Z,1.73
2019-03-04T07:24:20.675Z,2.03
2019-03-04T07:26:48.713Z,1.53
2019-03-04T07:29:16.616Z,1.50
2019-03-04T07:31:44.547Z,1.70
2019-03-04T07:34:12.540Z,1.00
2019-03-04T07:36:40.445Z,1.37
2019-03-04T07:39:14.896Z,2.03
2019-03-04T07:41:43.768Z,1.70
2019-03-04T07:44:11.675Z,1.53
2019-03-04T07:46:39.664Z,1.73
2019-03-04T07:49:07.601Z,1.57
2019-03-04T07:51:36.085Z,1.97
2019-03-04T07:54:03.993Z,1.53
2019-03-04T07:56:32.032Z,1.33
2019-03-04T07:58:59.927Z,1.10
2019-03-04T08:01:27.862Z,1.63
2019-03-04T08:03:55.823Z,1.53
2019-03-04T08:06:23.722Z,1.77
2019-03-04T08:09:09.476Z,1.20
2019-03-04T08:12:11.827Z,1.20
2019-03-04T08:14:39.727Z,1.57
2019-03-04T08:17:07.607Z,1.60
2019-03-04T08:19:35.605Z,1.43
2019-03-04T08:22:03.499Z,1.40
2019-03-04T08:24:31.536Z,1.37
2019-03-04T08:26:59.407Z,1.50
2019-03-04T08:29:27.266Z,1.30
2019-03-04T08:31:55.123Z,1.40
2019-03-04T08:34:30.815Z,2.03
2019-03-04T08:36:52.763Z,1.80
2019-03-04T08:39:22.827Z,1.30
2019-03-04T08:41:50.296Z,1.50
2019-03-04T08:44:18.506Z,1.77
2019-03-04T08:46:46.411Z,1.57
2019-03-04T08:49:14.325Z,1.67
2019-03-04T08:51:42.211Z,1.47
2019-03-04T08:54:10.117Z,2.03
2019-03-04T08:56:38.020Z,1.77
2019-03-04T08:59:05.922Z,1.60
2019-03-04T09:01:33.866Z,1.83
2019-03-04T09:04:01.778Z,1.47
2019-03-04T09:06:29.672Z,2.10
2019-03-04T09:08:57.600Z,1.80
2019-03-04T09:11:25.468Z,1.63
2019-03-04T09:13:53.346Z,1.90
2019-03-04T09:16:21.547Z,1.97
2019-03-04T09:18:49.568Z,2.07
2019-03-04T09:21:17.480Z,1.80
2019-03-04T09:23:45.443Z,1.77
2019-03-04T09:26:13.400Z,1.83
2019-03-04T09:28:41.280Z,2.27
2019-03-04T09:31:09.352Z,2.33
2019-03-04T09:33:37.251Z,2.00
2019-03-04T09:36:05.333Z,2.30
2019-03-04T09:38:34.404Z,1.93
2019-03-04T09:41:02.493Z,1.80
2019-03-04T09:43:30.458Z,2.33
2019-03-04T09:45:58.420Z,2.13
2019-03-04T09:48:26.418Z,2.07
2019-03-04T09:50:54.776Z,2.17
2019-03-04T09:53:22.805Z,2.10
2019-03-04T09:55:50.753Z,2.87
2019-03-04T09:58:18.713Z,2.37
2019-03-04T10:00:51.247Z,2.20
2019-03-04T10:03:22.081Z,2.30
2019-03-04T10:05:55.121Z,2.60
2019-03-04T10:08:32.971Z,3.07
2019-03-04T10:11:31.909Z,3.10
2019-03-04T10:14:22.095Z,2.63
2019-03-04T10:17:12.062Z,2.90
2019-03-04T10:19:45.106Z,2.13
2019-03-04T10:22:25.451Z,2.27
2019-03-04T10:25:13.060Z,2.33
2019-03-04T10:28:06.278Z,3.03
2019-03-04T10:30:51.310Z,2.87
2019-03-04T10:33:30.557Z,3.10
2019-03-04T10:36:06.692Z,3.07
2019-03-04T10:38:42.998Z,2.87
2019-03-04T10:41:29.623Z,3.23
2019-03-04T10:44:21.177Z,3.37
2019-03-04T10:46:55.608Z,3.53
2019-03-04T10:49:24.061Z,3.50
2019-03-04T10:51:52.115Z,3.83
2019-03-04T10:54:20.091Z,2.83
2019-03-04T10:56:48.059Z,3.37
2019-03-04T10:59:15.960Z,2.70
2019-03-04T11:01:44.272Z,3.27
2019-03-04T11:04:12.347Z,3.00
2019-03-04T11:06:40.274Z,3.10
2019-03-04T11:09:09.052Z,2.90
2019-03-04T11:11:37.220Z,3.30
2019-03-04T11:14:05.179Z,2.77
2019-03-04T11:16:33.416Z,3.40
2019-03-04T11:19:01.559Z,3.53
2019-03-04T11:21:29.491Z,3.87
2019-03-04T11:23:57.449Z,3.47
2019-03-04T11:26:25.392Z,3.47
2019-03-04T11:28:53.317Z,3.40
2019-03-04T11:31:21.244Z,4.93
2019-03-04T11:33:49.211Z,3.37
2019-03-04T11:36:17.112Z,3.90
2019-03-04T11:38:49.427Z,3.67
2019-03-04T11:41:18.541Z,4.73
2019-03-04T11:43:46.431Z,3.23
2019-03-04T11:46:14.361Z,4.17
2019-03-04T11:48:42.244Z,3.07
2019-03-04T11:51:10.107Z,4.20
2019-03-04T11:53:38.174Z,3.23
2019-03-04T11:56:06.094Z,4.27
2019-03-04T11:58:34.304Z,4.10
2019-03-04T12:01:08.007Z,4.43
2019-03-04T12:03:42.119Z,3.67
2019-03-04T12:06:10.099Z,3.93
2019-03-04T12:08:38.078Z,3.97
2019-03-04T12:11:06.329Z,3.10
2019-03-04T12:13:34.225Z,3.53
2019-03-04T12:16:02.360Z,3.87
2019-03-04T12:18:30.448Z,3.50
2019-03-04T12:20:58.350Z,3.93
2019-03-04T12:23:26.311Z,3.60
2019-03-04T12:25:54.345Z,4.03
2019-03-04T12:28:22.865Z,4.70
2019-03-04T12:30:50.831Z,5.70
2019-03-04T12:33:18.773Z,5.70
2019-03-04T12:35:46.696Z,5.03
2019-03-04T12:38:14.704Z,4.47
2019-03-04T12:40:43.003Z,5.20
2019-03-04T12:43:11.264Z,5.60
2019-03-04T12:45:39.335Z,5.73
2019-03-04T12:48:07.655Z,5.90
2019-03-04T12:50:35.847Z,6.07
2019-03-04T12:53:03.836Z,4.93
2019-03-04T12:55:31.812Z,5.20
2019-03-04T12:57:59.731Z,5.00
2019-03-04T13:00:30.623Z,5.13
2019-03-04T13:02:58.668Z,4.80
2019-03-04T13:05:26.771Z,4.73
2019-03-04T13:07:54.809Z,5.00
2019-03-04T13:10:23.000Z,5.17
2019-03-04T13:12:50.908Z,5.50
2019-03-04T13:15:20.057Z,4.77
2019-03-04T13:17:48.263Z,5.27
2019-03-04T13:20:17.793Z,4.40
2019-03-04T13:22:46.172Z,5.00
2019-03-04T13:25:14.908Z,4.37
2019-03-04T13:27:42.852Z,4.80
2019-03-04T13:30:12.222Z,5.10
2019-03-04T13:32:40.388Z,4.77
2019-03-04T13:35:09.014Z,4.63
2019-03-04T13:37:37.984Z,5.80
2019-03-04T13:40:06.815Z,4.83
2019-03-04T13:42:34.856Z,4.97
2019-03-04T13:45:02.901Z,4.80
2019-03-04T13:47:31.359Z,4.33
2019-03-04T13:50:02.471Z,4.60
2019-03-04T13:52:30.519Z,4.60
2019-03-04T13:54:58.626Z,4.87
2019-03-04T13:57:26.527Z,4.93
2019-03-04T13:59:54.505Z,4.50
2019-03-04T14:02:22.447Z,5.23
2019-03-04T14:04:50.804Z,4.73
2019-03-04T14:07:18.805Z,5.20
2019-03-04T14:09:46.717Z,5.23
2019-03-04T14:12:14.720Z,4.10
2019-03-04T14:14:42.587Z,4.93
2019-03-04T14:17:10.577Z,4.90
2019-03-04T14:19:38.513Z,4.53
2019-03-04T14:22:06.921Z,4.70
2019-03-04T14:24:34.984Z,4.30
2019-03-04T14:27:02.882Z,4.07
2019-03-04T14:29:31.082Z,4.03
2019-03-04T14:31:59.036Z,4.63
2019-03-04T14:34:26.964Z,4.50
2019-03-04T14:36:55.097Z,5.20
2019-03-04T14:39:23.216Z,4.70
2019-03-04T14:41:51.394Z,4.87
2019-03-04T14:44:19.382Z,5.60
2019-03-04T14:46:47.465Z,5.10
2019-03-04T14:49:18.483Z,5.00
2019-03-04T14:51:46.492Z,4.87
2019-03-04T14:54:14.422Z,4.30
2019-03-04T14:56:42.793Z,4.93
2019-03-04T14:59:11.400Z,4.70
2019-03-04T15:01:40.020Z,5.07
2019-03-04T15:04:10.320Z,5.07
2019-03-04T15:06:41.466Z,4.33
2019-03-04T15:09:29.764Z,4.30
2019-03-04T15:11:58.458Z,4.10
2019-03-04T15:14:27.416Z,4.23
2019-03-04T15:17:03.540Z,4.13
2019-03-04T15:19:34.886Z,4.50
2019-03-04T15:22:06.887Z,3.83
2019-03-04T15:24:36.832Z,3.90
2019-03-04T15:27:06.483Z,4.70
2019-03-04T15:29:34.604Z,4.73
2019-03-04T15:32:02.717Z,4.57
2019-03-04T15:34:30.805Z,4.10
2019-03-04T15:36:58.840Z,4.70
2019-03-04T15:39:33.192Z,4.47
2019-03-04T15:42:01.336Z,5.10
2019-03-04T15:44:29.533Z,4.87
2019-03-04T15:46:57.730Z,4.80
2019-03-04T15:49:25.672Z,4.10
2019-03-04T15:51:53.672Z,4.17
2019-03-04T15:54:21.680Z,4.03
2019-03-04T15:56:50.686Z,4.80
2019-03-04T15:59:18.666Z,4.60
2019-03-04T16:01:46.622Z,4.60
2019-03-04T16:04:17.473Z,4.47
2019-03-04T16:06:45.516Z,4.70
2019-03-04T16:09:17.875Z,4.60
2019-03-04T16:11:45.853Z,4.40
2019-03-04T16:14:15.159Z,4.47
2019-03-04T16:16:43.995Z,4.07
2019-03-04T16:19:11.948Z,5.43
2019-03-04T16:21:46.237Z,5.20
2019-03-04T16:24:20.517Z,5.40
2019-03-04T16:26:49.791Z,4.73
2019-03-04T16:29:18.899Z,5.17
2019-03-04T16:31:54.969Z,4.43
2019-03-04T16:34:22.987Z,5.30
2019-03-04T16:36:51.061Z,5.00
2019-03-04T16:39:23.463Z,5.27
2019-03-04T16:42:00.962Z,5.40
2019-03-04T16:44:29.003Z,5.23
2019-03-04T16:46:56.914Z,5.30
2019-03-04T16:49:25.004Z,5.27
2019-03-04T16:51:53.200Z,5.27
2019-03-04T16:54:21.221Z,5.17
2019-03-04T16:56:49.177Z,5.63
2019-03-04T16:59:17.236Z,5.33
2019-03-04T17:01:45.305Z,6.07
2019-03-04T17:04:13.482Z,5.03
2019-03-04T17:06:41.620Z,5.60
2019-03-04T17:09:16.986Z,5.37
2019-03-04T17:11:46.026Z,5.10
2019-03-04T17:14:14.282Z,5.97
2019-03-04T17:16:42.327Z,5.13
2019-03-04T17:19:11.951Z,4.47
2019-03-04T17:21:40.907Z,4.83
2019-03-04T17:24:10.056Z,4.87
2019-03-04T17:26:38.055Z,4.83
2019-03-04T17:29:06.148Z,5.13
2019-03-04T17:31:34.149Z,5.27
2019-03-04T17:34:02.117Z,5.47
2019-03-04T17:36:30.100Z,5.23
2019-03-04T17:38:58.126Z,6.30
2019-03-04T17:41:26.023Z,5.30
2019-03-04T17:43:57.017Z,5.10
2019-03-04T17:46:24.984Z,5.53
2019-03-04T17:48:53.056Z,5.43
2019-03-04T17:51:21.040Z,5.17
2019-03-04T17:53:49.008Z,5.13
2019-03-04T17:56:16.902Z,5.20
2019-03-04T17:58:44.891Z,6.67
2019-03-04T18:01:12.869Z,4.83
2019-03-04T18:03:40.836Z,5.43
2019-03-04T18:06:08.856Z,4.67
2019-03-04T18:08:38.036Z,4.80
2019-03-04T18:11:06.031Z,5.00
2019-03-04T18:13:34.121Z,5.20
2019-03-04T18:16:02.187Z,5.70
2019-03-04T18:18:30.123Z,5.77
2019-03-04T18:20:58.287Z,4.87
2019-03-04T18:23:27.123Z,4.50
2019-03-04T18:26:03.296Z,5.47
2019-03-04T18:28:57.442Z,4.30
2019-03-04T18:32:04.573Z,4.37
2019-03-04T18:34:57.476Z,4.13
2019-03-04T18:37:47.334Z,4.83
2019-03-04T18:40:40.217Z,3.97
2019-03-04T18:43:42.581Z,5.20
2019-03-04T18:46:26.078Z,4.70
2019-03-04T18:48:54.448Z,4.70
2019-03-04T18:51:22.547Z,4.30
2019-03-04T18:53:51.236Z,5.13
2019-03-04T18:56:22.248Z,5.47
2019-03-04T18:58:49.301Z,4.63
2019-03-04T19:01:17.409Z,5.43
2019-03-04T19:03:45.482Z,4.30
2019-03-04T19:06:14.157Z,3.70
2019-03-04T19:08:42.183Z,4.00
2019-03-04T19:11:10.504Z,4.70
2019-03-04T19:13:40.016Z,4.73
2019-03-04T19:16:09.532Z,4.30
2019-03-04T19:18:37.811Z,5.20
2019-03-04T19:21:05.833Z,4.30
2019-03-04T19:23:34.611Z,4.83
2019-03-04T19:26:08.983Z,4.33
2019-03-04T19:28:37.182Z,4.27
2019-03-04T19:31:06.229Z,3.73
2019-03-04T19:33:34.235Z,5.50
2019-03-04T19:36:02.144Z,4.57
2019-03-04T19:38:30.092Z,4.10
2019-03-04T19:40:58.292Z,4.60
2019-03-04T19:43:32.891Z,4.33
2019-03-04T19:45:56.242Z,4.20
2019-03-04T19:48:25.419Z,4.50
2019-03-04T19:50:53.509Z,4.13
2019-03-04T19:53:21.555Z,5.33
2019-03-04T19:55:49.751Z,4.20
2019-03-04T19:58:18.306Z,4.43
2019-03-04T20:00:46.391Z,3.80
2019-03-04T20:03:16.778Z,5.23
2019-03-04T20:05:44.928Z,4.87
2019-03-04T20:08:18.642Z,4.40
2019-03-04T20:10:53.033Z,4.80
2019-03-04T20:13:21.032Z,6.00
2019-03-04T20:15:49.223Z,5.60
2019-03-04T20:18:17.217Z,4.90
2019-03-04T20:20:46.038Z,5.17
2019-03-04T20:23:13.986Z,5.10
2019-03-04T20:25:42.021Z,5.13
2019-03-04T20:28:11.814Z,4.10
2019-03-04T20:30:39.841Z,5.20
2019-03-04T20:33:07.863Z,4.07
2019-03-04T20:35:35.822Z,3.87
2019-03-04T20:38:03.803Z,4.30
2019-03-04T20:40:32.056Z,4.40
2019-03-04T20:43:00.073Z,4.40
2019-03-04T20:45:28.124Z,4.53
2019-03-04T20:47:56.192Z,4.73
2019-03-04T20:50:24.259Z,4.40
2019-03-04T20:52:52.184Z,4.10
2019-03-04T20:55:21.878Z,4.17
2019-03-04T20:57:49.888Z,4.80
2019-03-04T21:00:19.180Z,3.80
2019-03-04T21:02:47.210Z,3.87
2019-03-04T21:05:15.571Z,3.70
2019-03-04T21:07:43.793Z,3.30
2019-03-04T21:10:11.894Z,4.00
2019-03-04T21:12:39.955Z,3.57
2019-03-04T21:15:10.026Z,3.57
2019-03-04T21:17:37.998Z,3.83
2019-03-04T21:20:06.444Z,4.00
2019-03-04T21:22:34.339Z,4.60
2019-03-04T21:25:02.232Z,4.37
2019-03-04T21:27:30.319Z,3.97
2019-03-04T21:30:17.408Z,4.30
2019-03-04T21:32:53.706Z,4.50
2019-03-04T21:35:39.574Z,4.10
2019-03-04T21:38:07.553Z,5.27
2019-03-04T21:40:41.512Z,5.23
2019-03-04T21:43:14.758Z,5.13
2019-03-04T21:46:00.393Z,4.77
2019-03-04T21:48:37.462Z,5.07
2019-03-04T21:51:21.810Z,3.80
2019-03-04T21:53:49.896Z,4.37
2019-03-04T21:56:30.297Z,4.20
2019-03-04T21:58:58.293Z,5.13
2019-03-04T22:01:27.920Z,4.37
2019-03-04T22:03:55.952Z,4.30
2019-03-04T22:06:24.736Z,4.30
2019-03-04T22:08:52.904Z,4.13
2019-03-04T22:11:21.010Z,4.53
2019-03-04T22:13:49.003Z,4.50
2019-03-04T22:16:17.303Z,4.27
2019-03-04T22:18:45.447Z,4.80
2019-03-04T22:21:16.748Z,4.53
2019-03-04T22:23:43.066Z,4.07
2019-03-04T22:26:11.284Z,3.97
2019-03-04T22:28:39.200Z,3.57
2019-03-04T22:31:07.267Z,3.90
2019-03-04T22:33:35.286Z,4.43
2019-03-04T22:36:03.358Z,3.80
2019-03-04T22:38:31.336Z,3.90
2019-03-04T22:40:59.376Z,3.90
2019-03-04T22:43:27.449Z,3.93
2019-03-04T22:45:55.535Z,3.93
2019-03-04T22:48:23.686Z,4.00
2019-03-04T22:50:51.733Z,4.50
2019-03-04T22:53:20.460Z,4.60
2019-03-04T22:55:48.394Z,4.17
2019-03-04T22:58:27.742Z,4.67
2019-03-04T23:01:31.802Z,4.10
2019-03-04T23:04:10.456Z,4.30
2019-03-04T23:06:38.735Z,4.40
2019-03-04T23:09:08.477Z,4.00
2019-03-04T23:11:36.755Z,3.90
2019-03-04T23:14:10.616Z,4.50
2019-03-04T23:16:38.647Z,3.93
2019-03-04T23:19:06.704Z,3.87
2019-03-04T23:21:34.662Z,4.07
2019-03-04T23:24:03.064Z,4.00
2019-03-04T23:26:31.048Z,4.30
2019-03-04T23:28:59.899Z,4.70
2019-03-04T23:31:29.201Z,4.43
2019-03-04T23:33:58.641Z,4.17
2019-03-04T23:36:26.618Z,3.63
2019-03-04T23:38:54.684Z,3.57
2019-03-04T23:41:23.003Z,4.03
2019-03-04T23:43:51.345Z,3.47
2019-03-04T23:46:20.713Z,3.87
2019-03-04T23:48:48.693Z,3.47
2019-03-04T23:51:16.860Z,3.83
2019-03-04T23:53:45.249Z,4.40
2019-03-04T23:56:13.335Z,3.93
2019-03-04T23:58:41.292Z,4.07
